sensor_id;sensor_type;location;lat;lon;timestamp;P1;durP1;ratioP1;P2;durP2;ratioP2
80315;SDS011;71201;47.064;15.448;2023-08-17T00:02:46;9.80;;;7.75;;
80315;SDS011;71201;47.064;15.448;2023-08-17T00:24:46;11.56;;;8.32;;
80315;SDS011;71201;47.064;15.448;2023-08-17T00:49:05;8.73;;;7.20;;
80315;SDS011;71201;47.064;15.448;2023-08-17T00:56:21;10.70;;;6.97;;
80315;SDS011;71201;47.064;15.448;2023-08-17T01:15:52;10.27;;;8.52;;
80315;SDS011;71201;47.064;15.448;2023-08-17T01:40:14;11.82;;;9.60;;
80315;SDS011;71201;47.064;15.448;2023-08-17T01:42:40;11.68;;;8.52;;
80315;SDS011;71201;47.064;15.448;2023-08-17T02:02:08;8.98;;;6.15;;
80315;SDS011;71201;47.064;15.448;2023-08-17T02:04:33;9.60;;;7.63;;
80315;SDS011;71201;47.064;15.448;2023-08-17T02:09:23;9.90;;;7.75;;
80315;SDS011;71201;47.064;15.448;2023-08-17T02:19:04;8.77;;;7.82;;
80315;SDS011;71201;47.064;15.448;2023-08-17T02:58:06;8.90;;;7.82;;
80315;SDS011;71201;47.064;15.448;2023-08-17T03:12:37;12.73;;;10.65;;
80315;SDS011;71201;47.064;15.448;2023-08-17T03:19:52;10.88;;;9.52;;
80315;SDS011;71201;47.064;15.448;2023-08-17T03:36:51;11.07;;;9.48;;
80315;SDS011;71201;47.064;15.448;2023-08-17T03:46:33;11.25;;;9.20;;
80315;SDS011;71201;47.064;15.448;2023-08-17T04:03:33;13.88;;;9.98;;
80315;SDS011;71201;47.064;15.448;2023-08-17T04:05:58;11.30;;;9.77;;
80315;SDS011;71201;47.064;15.448;2023-08-17T04:08:28;12.13;;;10.25;;
80315;SDS011;71201;47.064;15.448;2023-08-17T04:10:54;16.23;;;10.17;;
80315;SDS011;71201;47.064;15.448;2023-08-17T04:13:19;11.57;;;10.20;;
80315;SDS011;71201;47.064;15.448;2023-08-17T04:15:44;14.90;;;10.73;;
80315;SDS011;71201;47.064;15.448;2023-08-17T04:18:09;14.43;;;10.70;;
80315;SDS011;71201;47.064;15.448;2023-08-17T04:20:34;15.57;;;10.93;;
80315;SDS011;71201;47.064;15.448;2023-08-17T04:23:00;16.00;;;11.47;;
80315;SDS011;71201;47.064;15.448;2023-08-17T04:25:25;14.37;;;11.23;;
80315;SDS011;71201;47.064;15.448;2023-08-17T04:27:50;16.07;;;11.57;;
80315;SDS011;71201;47.064;15.448;2023-08-17T04:30:15;15.38;;;11.73;;
80315;SDS011;71201;47.064;15.448;2023-08-17T04:32:41;15.40;;;10.60;;
80315;SDS011;71201;47.064;15.448;2023-08-17T04:35:06;15.07;;;11.30;;
80315;SDS011;71201;47.064;15.448;2023-08-17T04:37:31;15.80;;;10.68;;
80315;SDS011;71201;47.064;15.448;2023-08-17T04:39:56;16.33;;;11.17;;
80315;SDS011;71201;47.064;15.448;2023-08-17T04:42:22;17.03;;;11.60;;
80315;SDS011;71201;47.064;15.448;2023-08-17T04:44:47;14.30;;;10.93;;
80315;SDS011;71201;47.064;15.448;2023-08-17T04:47:12;13.77;;;10.77;;
80315;SDS011;71201;47.064;15.448;2023-08-17T04:49:38;13.50;;;9.50;;
80315;SDS011;71201;47.064;15.448;2023-08-17T04:52:03;14.27;;;10.83;;
80315;SDS011;71201;47.064;15.448;2023-08-17T04:54:28;14.43;;;10.00;;
80315;SDS011;71201;47.064;15.448;2023-08-17T04:56:53;13.60;;;10.53;;
80315;SDS011;71201;47.064;15.448;2023-08-17T04:59:19;13.40;;;10.00;;
80315;SDS011;71201;47.064;15.448;2023-08-17T05:01:44;13.37;;;10.27;;
80315;SDS011;71201;47.064;15.448;2023-08-17T05:04:09;12.03;;;9.70;;
80315;SDS011;71201;47.064;15.448;2023-08-17T05:06:34;11.63;;;9.23;;
80315;SDS011;71201;47.064;15.448;2023-08-17T05:09:00;11.30;;;8.85;;
80315;SDS011;71201;47.064;15.448;2023-08-17T05:11:25;10.27;;;9.13;;
80315;SDS011;71201;47.064;15.448;2023-08-17T05:13:50;10.33;;;9.23;;
80315;SDS011;71201;47.064;15.448;2023-08-17T05:16:15;17.80;;;7.67;;
80315;SDS011;71201;47.064;15.448;2023-08-17T05:18:41;17.93;;;8.23;;
80315;SDS011;71201;47.064;15.448;2023-08-17T05:21:06;15.03;;;7.80;;
80315;SDS011;71201;47.064;15.448;2023-08-17T05:23:31;19.13;;;7.40;;
80315;SDS011;71201;47.064;15.448;2023-08-17T06:05:06;12.32;;;9.02;;
80315;SDS011;71201;47.064;15.448;2023-08-17T06:10:03;11.30;;;9.30;;
80315;SDS011;71201;47.064;15.448;2023-08-17T06:19:47;13.80;;;9.65;;
80315;SDS011;71201;47.064;15.448;2023-08-17T06:24:37;12.30;;;9.35;;
80315;SDS011;71201;47.064;15.448;2023-08-17T06:27:02;14.30;;;9.37;;
80315;SDS011;71201;47.064;15.448;2023-08-17T06:31:53;15.32;;;9.00;;
80315;SDS011;71201;47.064;15.448;2023-08-17T06:46:30;16.40;;;9.82;;
80315;SDS011;71201;47.064;15.448;2023-08-17T07:06:04;17.13;;;8.05;;
80315;SDS011;71201;47.064;15.448;2023-08-17T07:08:29;11.60;;;8.80;;
80315;SDS011;71201;47.064;15.448;2023-08-17T07:10:54;9.77;;;7.97;;
80315;SDS011;71201;47.064;15.448;2023-08-17T07:13:20;10.17;;;7.93;;
80315;SDS011;71201;47.064;15.448;2023-08-17T07:15:45;13.57;;;9.13;;
80315;SDS011;71201;47.064;15.448;2023-08-17T07:18:10;10.30;;;8.40;;
80315;SDS011;71201;47.064;15.448;2023-08-17T07:20:35;14.33;;;8.03;;
80315;SDS011;71201;47.064;15.448;2023-08-17T07:23:00;9.60;;;7.40;;
80315;SDS011;71201;47.064;15.448;2023-08-17T07:25:26;11.23;;;9.03;;
80315;SDS011;71201;47.064;15.448;2023-08-17T07:27:51;13.63;;;10.63;;
80315;SDS011;71201;47.064;15.448;2023-08-17T07:30:16;8.67;;;6.73;;
80315;SDS011;71201;47.064;15.448;2023-08-17T07:32:41;8.00;;;7.20;;
80315;SDS011;71201;47.064;15.448;2023-08-17T07:35:07;13.83;;;8.43;;
80315;SDS011;71201;47.064;15.448;2023-08-17T07:37:32;9.35;;;7.55;;
80315;SDS011;71201;47.064;15.448;2023-08-17T07:39:58;13.98;;;8.05;;
80315;SDS011;71201;47.064;15.448;2023-08-17T07:42:23;10.10;;;7.55;;
80315;SDS011;71201;47.064;15.448;2023-08-17T07:44:49;10.17;;;7.67;;
80315;SDS011;71201;47.064;15.448;2023-08-17T07:47:14;9.63;;;6.40;;
80315;SDS011;71201;47.064;15.448;2023-08-17T07:49:39;8.93;;;6.47;;
80315;SDS011;71201;47.064;15.448;2023-08-17T07:52:04;8.60;;;5.40;;
80315;SDS011;71201;47.064;15.448;2023-08-17T07:54:30;8.18;;;5.82;;
80315;SDS011;71201;47.064;15.448;2023-08-17T07:56:55;7.93;;;5.33;;
80315;SDS011;71201;47.064;15.448;2023-08-17T07:59:21;6.27;;;5.13;;
80315;SDS011;71201;47.064;15.448;2023-08-17T08:01:46;6.60;;;5.83;;
80315;SDS011;71201;47.064;15.448;2023-08-17T08:04:11;9.07;;;6.23;;
80315;SDS011;71201;47.064;15.448;2023-08-17T08:06:36;7.17;;;4.70;;
80315;SDS011;71201;47.064;15.448;2023-08-17T08:09:01;6.47;;;5.20;;
80315;SDS011;71201;47.064;15.448;2023-08-17T08:11:27;7.47;;;5.65;;
80315;SDS011;71201;47.064;15.448;2023-08-17T08:13:52;7.55;;;5.28;;
80315;SDS011;71201;47.064;15.448;2023-08-17T08:16:18;10.20;;;5.67;;
80315;SDS011;71201;47.064;15.448;2023-08-17T08:18:43;6.30;;;4.70;;
80315;SDS011;71201;47.064;15.448;2023-08-17T08:21:08;6.77;;;5.20;;
80315;SDS011;71201;47.064;15.448;2023-08-17T08:23:34;10.05;;;5.15;;
80315;SDS011;71201;47.064;15.448;2023-08-17T08:25:59;6.43;;;5.00;;
80315;SDS011;71201;47.064;15.448;2023-08-17T08:28:24;6.03;;;5.43;;
80315;SDS011;71201;47.064;15.448;2023-08-17T08:30:50;7.47;;;5.43;;
80315;SDS011;71201;47.064;15.448;2023-08-17T08:33:15;8.17;;;4.87;;
80315;SDS011;71201;47.064;15.448;2023-08-17T08:35:40;12.93;;;5.07;;
80315;SDS011;71201;47.064;15.448;2023-08-17T08:38:06;7.03;;;5.30;;
80315;SDS011;71201;47.064;15.448;2023-08-17T08:40:31;7.55;;;5.22;;
80315;SDS011;71201;47.064;15.448;2023-08-17T08:42:56;6.68;;;5.15;;
80315;SDS011;71201;47.064;15.448;2023-08-17T08:45:22;8.23;;;5.40;;
80315;SDS011;71201;47.064;15.448;2023-08-17T08:47:48;5.60;;;4.75;;
80315;SDS011;71201;47.064;15.448;2023-08-17T08:50:15;6.93;;;5.15;;
80315;SDS011;71201;47.064;15.448;2023-08-17T08:52:42;6.28;;;5.28;;
80315;SDS011;71201;47.064;15.448;2023-08-17T08:57:34;6.78;;;5.07;;
80315;SDS011;71201;47.064;15.448;2023-08-17T09:00:01;5.45;;;4.90;;
80315;SDS011;71201;47.064;15.448;2023-08-17T09:02:26;7.20;;;5.70;;
80315;SDS011;71201;47.064;15.448;2023-08-17T09:04:51;6.13;;;5.50;;
80315;SDS011;71201;47.064;15.448;2023-08-17T09:07:17;6.87;;;5.73;;
80315;SDS011;71201;47.064;15.448;2023-08-17T09:09:42;6.32;;;5.25;;
80315;SDS011;71201;47.064;15.448;2023-08-17T09:12:09;4.85;;;4.35;;
80315;SDS011;71201;47.064;15.448;2023-08-17T09:14:35;7.57;;;5.60;;
80315;SDS011;71201;47.064;15.448;2023-08-17T09:17:02;6.68;;;5.38;;
80315;SDS011;71201;47.064;15.448;2023-08-17T09:19:27;7.78;;;5.05;;
80315;SDS011;71201;47.064;15.448;2023-08-17T09:21:53;8.73;;;4.75;;
80315;SDS011;71201;47.064;15.448;2023-08-17T09:24:18;6.55;;;4.95;;
80315;SDS011;71201;47.064;15.448;2023-08-17T09:26:43;5.53;;;4.63;;
80315;SDS011;71201;47.064;15.448;2023-08-17T09:29:18;7.53;;;4.70;;
80315;SDS011;71201;47.064;15.448;2023-08-17T09:31:44;6.97;;;4.30;;
80315;SDS011;71201;47.064;15.448;2023-08-17T09:34:10;8.55;;;4.97;;
80315;SDS011;71201;47.064;15.448;2023-08-17T09:36:37;6.23;;;4.60;;
80315;SDS011;71201;47.064;15.448;2023-08-17T09:39:02;5.55;;;4.75;;
80315;SDS011;71201;47.064;15.448;2023-08-17T09:41:28;5.70;;;4.30;;
80315;SDS011;71201;47.064;15.448;2023-08-17T09:43:54;5.63;;;4.43;;
80315;SDS011;71201;47.064;15.448;2023-08-17T09:46:19;5.88;;;4.90;;
80315;SDS011;71201;47.064;15.448;2023-08-17T09:48:45;6.10;;;4.85;;
80315;SDS011;71201;47.064;15.448;2023-08-17T09:51:16;11.20;;;4.88;;
80315;SDS011;71201;47.064;15.448;2023-08-17T09:53:41;8.05;;;5.15;;
80315;SDS011;71201;47.064;15.448;2023-08-17T09:56:07;5.95;;;4.90;;
80315;SDS011;71201;47.064;15.448;2023-08-17T09:58:33;6.05;;;5.07;;
80315;SDS011;71201;47.064;15.448;2023-08-17T10:00:58;8.05;;;5.18;;
80315;SDS011;71201;47.064;15.448;2023-08-17T10:03:27;5.88;;;4.82;;
80315;SDS011;71201;47.064;15.448;2023-08-17T10:05:56;5.88;;;4.47;;
80315;SDS011;71201;47.064;15.448;2023-08-17T10:08:23;5.97;;;4.75;;
80315;SDS011;71201;47.064;15.448;2023-08-17T10:10:49;7.43;;;4.60;;
80315;SDS011;71201;47.064;15.448;2023-08-17T10:13:35;6.22;;;4.80;;
80315;SDS011;71201;47.064;15.448;2023-08-17T10:18:31;6.00;;;5.20;;
80315;SDS011;71201;47.064;15.448;2023-08-17T10:21:07;7.30;;;5.53;;
80315;SDS011;71201;47.064;15.448;2023-08-17T10:23:32;9.77;;;5.35;;
80315;SDS011;71201;47.064;15.448;2023-08-17T10:25:58;7.28;;;5.03;;
80315;SDS011;71201;47.064;15.448;2023-08-17T10:28:25;5.68;;;5.05;;
80315;SDS011;71201;47.064;15.448;2023-08-17T10:34:56;6.88;;;4.55;;
80315;SDS011;71201;47.064;15.448;2023-08-17T10:41:26;5.43;;;4.78;;
80315;SDS011;71201;47.064;15.448;2023-08-17T10:52:41;6.05;;;5.13;;
80315;SDS011;71201;47.064;15.448;2023-08-17T10:55:14;6.25;;;5.65;;
80315;SDS011;71201;47.064;15.448;2023-08-17T11:02:31;5.80;;;5.25;;
80315;SDS011;71201;47.064;15.448;2023-08-17T11:04:55;6.90;;;5.95;;
80315;SDS011;71201;47.064;15.448;2023-08-17T11:07:20;6.63;;;4.95;;
80315;SDS011;71201;47.064;15.448;2023-08-17T11:19:39;7.10;;;4.88;;
80315;SDS011;71201;47.064;15.448;2023-08-17T11:31:49;6.60;;;4.70;;
80315;SDS011;71201;47.064;15.448;2023-08-17T11:34:14;5.28;;;4.00;;
80315;SDS011;71201;47.064;15.448;2023-08-17T11:41:32;8.43;;;4.97;;
80315;SDS011;71201;47.064;15.448;2023-08-17T11:43:57;6.22;;;4.72;;
80315;SDS011;71201;47.064;15.448;2023-08-17T11:46:23;5.97;;;4.13;;
80315;SDS011;71201;47.064;15.448;2023-08-17T11:48:50;5.68;;;4.82;;
80315;SDS011;71201;47.064;15.448;2023-08-17T11:51:27;6.13;;;5.13;;
80315;SDS011;71201;47.064;15.448;2023-08-17T11:53:53;7.20;;;4.95;;
80315;SDS011;71201;47.064;15.448;2023-08-17T11:56:18;6.50;;;3.90;;
80315;SDS011;71201;47.064;15.448;2023-08-17T11:58:45;4.95;;;4.50;;
80315;SDS011;71201;47.064;15.448;2023-08-17T12:01:10;5.03;;;4.00;;
80315;SDS011;71201;47.064;15.448;2023-08-17T12:03:36;5.13;;;3.97;;
80315;SDS011;71201;47.064;15.448;2023-08-17T12:06:01;6.50;;;4.30;;
80315;SDS011;71201;47.064;15.448;2023-08-17T12:08:27;5.55;;;4.22;;
80315;SDS011;71201;47.064;15.448;2023-08-17T12:10:52;4.68;;;4.13;;
80315;SDS011;71201;47.064;15.448;2023-08-17T12:13:17;6.27;;;4.10;;
80315;SDS011;71201;47.064;15.448;2023-08-17T12:15:42;5.53;;;4.10;;
80315;SDS011;71201;47.064;15.448;2023-08-17T12:18:08;4.53;;;4.00;;
80315;SDS011;71201;47.064;15.448;2023-08-17T12:20:33;5.90;;;4.07;;
80315;SDS011;71201;47.064;15.448;2023-08-17T12:23:01;7.22;;;3.80;;
80315;SDS011;71201;47.064;15.448;2023-08-17T12:25:26;5.32;;;4.30;;
80315;SDS011;71201;47.064;15.448;2023-08-17T12:27:52;6.90;;;3.90;;
80315;SDS011;71201;47.064;15.448;2023-08-17T12:30:24;5.38;;;4.00;;
80315;SDS011;71201;47.064;15.448;2023-08-17T12:32:50;7.05;;;4.35;;
80315;SDS011;71201;47.064;15.448;2023-08-17T12:35:15;4.93;;;4.00;;
80315;SDS011;71201;47.064;15.448;2023-08-17T12:37:41;3.97;;;3.67;;
80315;SDS011;71201;47.064;15.448;2023-08-17T12:40:06;5.67;;;3.60;;
80315;SDS011;71201;47.064;15.448;2023-08-17T12:42:33;7.35;;;3.53;;
80315;SDS011;71201;47.064;15.448;2023-08-17T12:44:58;6.97;;;3.38;;
80315;SDS011;71201;47.064;15.448;2023-08-17T12:47:23;5.10;;;3.50;;
80315;SDS011;71201;47.064;15.448;2023-08-17T12:49:49;4.30;;;3.90;;
80315;SDS011;71201;47.064;15.448;2023-08-17T12:52:14;5.20;;;3.90;;
80315;SDS011;71201;47.064;15.448;2023-08-17T12:54:39;11.57;;;4.10;;
80315;SDS011;71201;47.064;15.448;2023-08-17T12:57:04;4.20;;;3.63;;
80315;SDS011;71201;47.064;15.448;2023-08-17T12:59:29;5.27;;;4.00;;
80315;SDS011;71201;47.064;15.448;2023-08-17T13:01:55;4.10;;;3.47;;
80315;SDS011;71201;47.064;15.448;2023-08-17T13:04:20;4.43;;;4.00;;
80315;SDS011;71201;47.064;15.448;2023-08-17T13:06:45;4.03;;;3.63;;
80315;SDS011;71201;47.064;15.448;2023-08-17T13:09:12;4.63;;;3.10;;
80315;SDS011;71201;47.064;15.448;2023-08-17T13:11:39;4.30;;;3.53;;
80315;SDS011;71201;47.064;15.448;2023-08-17T13:14:04;4.27;;;3.47;;
80315;SDS011;71201;47.064;15.448;2023-08-17T13:16:30;6.30;;;4.37;;
80315;SDS011;71201;47.064;15.448;2023-08-17T13:18:55;6.53;;;3.70;;
80315;SDS011;71201;47.064;15.448;2023-08-17T13:21:20;4.27;;;3.10;;
80315;SDS011;71201;47.064;15.448;2023-08-17T13:23:45;4.70;;;3.30;;
80315;SDS011;71201;47.064;15.448;2023-08-17T13:26:11;4.00;;;3.20;;
80315;SDS011;71201;47.064;15.448;2023-08-17T13:28:36;4.40;;;3.55;;
80315;SDS011;71201;47.064;15.448;2023-08-17T13:31:01;5.50;;;4.03;;
80315;SDS011;71201;47.064;15.448;2023-08-17T13:33:26;4.10;;;3.50;;
80315;SDS011;71201;47.064;15.448;2023-08-17T13:35:52;4.70;;;3.58;;
80315;SDS011;71201;47.064;15.448;2023-08-17T13:38:17;3.83;;;3.43;;
80315;SDS011;71201;47.064;15.448;2023-08-17T13:40:42;5.77;;;3.80;;
80315;SDS011;71201;47.064;15.448;2023-08-17T13:43:07;5.57;;;3.43;;
80315;SDS011;71201;47.064;15.448;2023-08-17T13:45:37;4.22;;;3.50;;
80315;SDS011;71201;47.064;15.448;2023-08-17T13:48:02;4.30;;;3.90;;
80315;SDS011;71201;47.064;15.448;2023-08-17T13:50:28;3.70;;;3.28;;
80315;SDS011;71201;47.064;15.448;2023-08-17T13:52:53;4.00;;;3.60;;
80315;SDS011;71201;47.064;15.448;2023-08-17T13:55:18;4.20;;;3.13;;
80315;SDS011;71201;47.064;15.448;2023-08-17T13:57:43;4.10;;;3.57;;
80315;SDS011;71201;47.064;15.448;2023-08-17T14:00:09;3.95;;;3.05;;
80315;SDS011;71201;47.064;15.448;2023-08-17T14:02:34;4.28;;;3.20;;
80315;SDS011;71201;47.064;15.448;2023-08-17T14:05:00;3.58;;;3.20;;
80315;SDS011;71201;47.064;15.448;2023-08-17T14:07:25;4.07;;;3.20;;
80315;SDS011;71201;47.064;15.448;2023-08-17T14:09:50;5.47;;;3.33;;
80315;SDS011;71201;47.064;15.448;2023-08-17T14:12:15;4.70;;;3.50;;
80315;SDS011;71201;47.064;15.448;2023-08-17T14:14:40;7.70;;;3.60;;
80315;SDS011;71201;47.064;15.448;2023-08-17T14:17:06;4.77;;;3.73;;
80315;SDS011;71201;47.064;15.448;2023-08-17T14:19:31;3.73;;;3.20;;
80315;SDS011;71201;47.064;15.448;2023-08-17T14:21:56;5.13;;;3.55;;
80315;SDS011;71201;47.064;15.448;2023-08-17T14:24:22;4.72;;;3.53;;
80315;SDS011;71201;47.064;15.448;2023-08-17T14:26:47;5.43;;;3.47;;
80315;SDS011;71201;47.064;15.448;2023-08-17T14:29:12;3.90;;;3.30;;
80315;SDS011;71201;47.064;15.448;2023-08-17T14:31:37;5.07;;;3.60;;
80315;SDS011;71201;47.064;15.448;2023-08-17T14:34:03;5.10;;;3.33;;
80315;SDS011;71201;47.064;15.448;2023-08-17T14:36:29;4.40;;;2.92;;
80315;SDS011;71201;47.064;15.448;2023-08-17T14:38:54;4.88;;;3.90;;
80315;SDS011;71201;47.064;15.448;2023-08-17T14:41:19;6.77;;;3.93;;
80315;SDS011;71201;47.064;15.448;2023-08-17T14:43:45;5.63;;;3.60;;
80315;SDS011;71201;47.064;15.448;2023-08-17T14:46:10;4.90;;;3.50;;
80315;SDS011;71201;47.064;15.448;2023-08-17T14:48:36;4.63;;;3.50;;
80315;SDS011;71201;47.064;15.448;2023-08-17T14:51:01;5.47;;;3.20;;
80315;SDS011;71201;47.064;15.448;2023-08-17T14:53:26;6.22;;;3.53;;
80315;SDS011;71201;47.064;15.448;2023-08-17T14:55:52;7.70;;;4.40;;
80315;SDS011;71201;47.064;15.448;2023-08-17T14:58:17;5.75;;;3.38;;
80315;SDS011;71201;47.064;15.448;2023-08-17T15:00:43;4.78;;;3.58;;
80315;SDS011;71201;47.064;15.448;2023-08-17T15:03:08;5.67;;;3.67;;
80315;SDS011;71201;47.064;15.448;2023-08-17T15:05:33;7.53;;;3.83;;
80315;SDS011;71201;47.064;15.448;2023-08-17T15:08:01;6.22;;;3.58;;
80315;SDS011;71201;47.064;15.448;2023-08-17T15:10:26;5.00;;;3.90;;
80315;SDS011;71201;47.064;15.448;2023-08-17T15:12:51;6.97;;;4.40;;
80315;SDS011;71201;47.064;15.448;2023-08-17T15:15:17;4.73;;;3.67;;
80315;SDS011;71201;47.064;15.448;2023-08-17T15:17:42;4.85;;;3.60;;
80315;SDS011;71201;47.064;15.448;2023-08-17T15:20:07;5.73;;;3.80;;
80315;SDS011;71201;47.064;15.448;2023-08-17T15:22:33;5.15;;;3.75;;
80315;SDS011;71201;47.064;15.448;2023-08-17T15:24:58;6.40;;;3.80;;
80315;SDS011;71201;47.064;15.448;2023-08-17T15:27:23;5.80;;;3.47;;
80315;SDS011;71201;47.064;15.448;2023-08-17T15:29:48;4.85;;;3.60;;
80315;SDS011;71201;47.064;15.448;2023-08-17T15:32:13;5.13;;;3.23;;
80315;SDS011;71201;47.064;15.448;2023-08-17T15:34:39;4.50;;;3.67;;
80315;SDS011;71201;47.064;15.448;2023-08-17T15:37:05;5.15;;;3.22;;
80315;SDS011;71201;47.064;15.448;2023-08-17T15:39:31;5.53;;;3.50;;
80315;SDS011;71201;47.064;15.448;2023-08-17T15:41:56;7.03;;;3.43;;
80315;SDS011;71201;47.064;15.448;2023-08-17T15:44:21;5.23;;;3.50;;
80315;SDS011;71201;47.064;15.448;2023-08-17T15:46:46;5.35;;;3.35;;
80315;SDS011;71201;47.064;15.448;2023-08-17T15:49:11;3.97;;;3.37;;
80315;SDS011;71201;47.064;15.448;2023-08-17T15:51:37;6.10;;;3.75;;
80315;SDS011;71201;47.064;15.448;2023-08-17T15:54:02;4.95;;;3.75;;
80315;SDS011;71201;47.064;15.448;2023-08-17T15:56:27;5.35;;;3.78;;
80315;SDS011;71201;47.064;15.448;2023-08-17T15:58:53;6.33;;;3.90;;
80315;SDS011;71201;47.064;15.448;2023-08-17T16:01:18;5.07;;;3.50;;
80315;SDS011;71201;47.064;15.448;2023-08-17T16:03:44;4.83;;;3.83;;
80315;SDS011;71201;47.064;15.448;2023-08-17T16:06:09;6.10;;;4.00;;
80315;SDS011;71201;47.064;15.448;2023-08-17T16:08:34;7.30;;;3.63;;
80315;SDS011;71201;47.064;15.448;2023-08-17T16:10:59;5.30;;;3.37;;
80315;SDS011;71201;47.064;15.448;2023-08-17T16:13:25;4.03;;;3.50;;
80315;SDS011;71201;47.064;15.448;2023-08-17T16:15:50;5.33;;;4.00;;
80315;SDS011;71201;47.064;15.448;2023-08-17T16:18:15;6.17;;;3.70;;
80315;SDS011;71201;47.064;15.448;2023-08-17T16:20:40;5.63;;;3.60;;
80315;SDS011;71201;47.064;15.448;2023-08-17T16:23:06;4.83;;;3.77;;
80315;SDS011;71201;47.064;15.448;2023-08-17T16:25:31;8.73;;;4.05;;
80315;SDS011;71201;47.064;15.448;2023-08-17T16:27:58;5.50;;;4.45;;
80315;SDS011;71201;47.064;15.448;2023-08-17T16:30:23;6.03;;;4.07;;
80315;SDS011;71201;47.064;15.448;2023-08-17T16:32:48;5.15;;;3.70;;
80315;SDS011;71201;47.064;15.448;2023-08-17T16:35:14;5.68;;;4.05;;
80315;SDS011;71201;47.064;15.448;2023-08-17T16:37:40;4.65;;;3.90;;
80315;SDS011;71201;47.064;15.448;2023-08-17T16:40:05;6.03;;;3.92;;
80315;SDS011;71201;47.064;15.448;2023-08-17T16:42:31;7.82;;;4.70;;
80315;SDS011;71201;47.064;15.448;2023-08-17T16:44:56;6.82;;;4.30;;
80315;SDS011;71201;47.064;15.448;2023-08-17T16:47:21;5.35;;;4.15;;
80315;SDS011;71201;47.064;15.448;2023-08-17T16:52:16;8.52;;;4.72;;
80315;SDS011;71201;47.064;15.448;2023-08-17T16:54:41;5.22;;;3.90;;
80315;SDS011;71201;47.064;15.448;2023-08-17T16:57:06;7.40;;;4.35;;
80315;SDS011;71201;47.064;15.448;2023-08-17T16:59:31;7.07;;;3.97;;
80315;SDS011;71201;47.064;15.448;2023-08-17T17:01:57;6.50;;;4.27;;
80315;SDS011;71201;47.064;15.448;2023-08-17T17:04:22;6.78;;;4.70;;
80315;SDS011;71201;47.064;15.448;2023-08-17T17:06:47;5.20;;;4.35;;
80315;SDS011;71201;47.064;15.448;2023-08-17T17:09:13;7.57;;;4.50;;
80315;SDS011;71201;47.064;15.448;2023-08-17T17:11:38;7.33;;;4.50;;
80315;SDS011;71201;47.064;15.448;2023-08-17T17:14:03;6.38;;;4.60;;
80315;SDS011;71201;47.064;15.448;2023-08-17T17:16:29;6.38;;;4.05;;
80315;SDS011;71201;47.064;15.448;2023-08-17T17:18:54;6.37;;;4.57;;
80315;SDS011;71201;47.064;15.448;2023-08-17T17:21:19;6.10;;;4.33;;
80315;SDS011;71201;47.064;15.448;2023-08-17T17:23:45;7.72;;;4.57;;
80315;SDS011;71201;47.064;15.448;2023-08-17T17:26:10;7.70;;;4.50;;
80315;SDS011;71201;47.064;15.448;2023-08-17T17:28:36;6.20;;;4.53;;
80315;SDS011;71201;47.064;15.448;2023-08-17T17:31:02;8.25;;;4.35;;
80315;SDS011;71201;47.064;15.448;2023-08-17T17:33:28;6.68;;;4.85;;
80315;SDS011;71201;47.064;15.448;2023-08-17T17:40:50;7.43;;;4.70;;
80315;SDS011;71201;47.064;15.448;2023-08-17T17:48:12;8.45;;;4.72;;
80315;SDS011;71201;47.064;15.448;2023-08-17T17:55:30;11.68;;;6.03;;
80315;SDS011;71201;47.064;15.448;2023-08-17T18:00:20;13.00;;;6.03;;
80315;SDS011;71201;47.064;15.448;2023-08-17T18:07:37;12.93;;;5.90;;
80315;SDS011;71201;47.064;15.448;2023-08-17T18:14:53;12.23;;;4.90;;
80315;SDS011;71201;47.064;15.448;2023-08-17T18:30:20;10.32;;;6.10;;
80315;SDS011;71201;47.064;15.448;2023-08-17T19:00:18;11.10;;;6.22;;
80315;SDS011;71201;47.064;15.448;2023-08-17T19:07:35;11.30;;;5.80;;
80315;SDS011;71201;47.064;15.448;2023-08-17T19:12:25;6.88;;;5.63;;
80315;SDS011;71201;47.064;15.448;2023-08-17T19:22:08;10.75;;;6.35;;
80315;SDS011;71201;47.064;15.448;2023-08-17T19:24:33;13.40;;;6.03;;
80315;SDS011;71201;47.064;15.448;2023-08-17T19:26:58;9.73;;;5.68;;
80315;SDS011;71201;47.064;15.448;2023-08-17T19:29:24;10.18;;;6.28;;
80315;SDS011;71201;47.064;15.448;2023-08-17T19:51:21;10.30;;;6.18;;
80315;SDS011;71201;47.064;15.448;2023-08-17T19:53:47;8.43;;;6.15;;
80315;SDS011;71201;47.064;15.448;2023-08-17T20:03:29;10.20;;;6.78;;
80315;SDS011;71201;47.064;15.448;2023-08-17T20:16:06;10.18;;;7.10;;
80315;SDS011;71201;47.064;15.448;2023-08-17T20:26:41;9.10;;;6.40;;
80315;SDS011;71201;47.064;15.448;2023-08-17T20:31:31;9.48;;;7.20;;
80315;SDS011;71201;47.064;15.448;2023-08-17T20:43:46;11.20;;;8.18;;
80315;SDS011;71201;47.064;15.448;2023-08-17T20:48:38;10.30;;;7.97;;
80315;SDS011;71201;47.064;15.448;2023-08-17T20:58:26;10.75;;;7.80;;
80315;SDS011;71201;47.064;15.448;2023-08-17T21:00:51;9.10;;;7.35;;
80315;SDS011;71201;47.064;15.448;2023-08-17T21:08:09;10.38;;;7.80;;
80315;SDS011;71201;47.064;15.448;2023-08-17T21:15:26;10.10;;;6.97;;
80315;SDS011;71201;47.064;15.448;2023-08-17T21:27:34;9.30;;;6.90;;
80315;SDS011;71201;47.064;15.448;2023-08-17T21:42:05;9.55;;;7.43;;
80315;SDS011;71201;47.064;15.448;2023-08-17T22:01:31;8.13;;;6.93;;
80315;SDS011;71201;47.064;15.448;2023-08-17T22:22:15;8.32;;;6.53;;
80315;SDS011;71201;47.064;15.448;2023-08-17T22:44:04;7.80;;;6.63;;
80315;SDS011;71201;47.064;15.448;2023-08-17T22:56:11;8.10;;;6.43;;
80315;SDS011;71201;47.064;15.448;2023-08-17T22:58:37;8.65;;;6.88;;
80315;SDS011;71201;47.064;15.448;2023-08-17T23:05:52;8.63;;;7.63;;
80315;SDS011;71201;47.064;15.448;2023-08-17T23:10:26;9.48;;;7.15;;
80315;SDS011;71201;47.064;15.448;2023-08-17T23:17:44;8.93;;;6.55;;
80315;SDS011;71201;47.064;15.448;2023-08-17T23:29:51;8.90;;;7.20;;
80315;SDS011;71201;47.064;15.448;2023-08-17T23:34:41;7.63;;;6.10;;
80315;SDS011;71201;47.064;15.448;2023-08-17T23:44:24;10.40;;;7.20;;
80315;SDS011;71201;47.064;15.448;2023-08-17T23:55:06;8.65;;;7.55;;
